IRM110 OIIE-LIMC
Flight info
| Callsign | IRM110 |
|---|---|
| Flight time | 1h 21m |
| Altitude | 36000 |
| Route | PAROT3L PAROT G208 ZAJ R661 TBZ L333 DASIS UL333 SIV UA4 BUK UL615 VADEN DCT DOLAP DCT ROTAR DCT VIC DCT ADOSA DCT IDREK DCT ELTAR DCT NOBMI DCT OSKOR L615 PEXUG PEXUG3H |
| Aircraft | A346/H-SDE2E3FGHIJ3J4J5M1RWXY/LB1D1 |
Departure
| Time | 2026-05-05 18:02 |
|---|---|
| Airport | Imam Khomeini International Airport (OIIE) |
Arrival
| Time | 2026-05-05 19:23 |
|---|---|
| Airport | Milan Malpensa International Airport (LIMC) |
| Time | Latitude | Longitude | Altitude | Speed | Heading |
|---|---|---|---|---|---|
| 2026-05-05 17:58 | 35.41057 | 51.15736 | 3335 ft | 18 kts | 108° |
| 2026-05-05 17:58 | 35.41040 | 51.15797 | 3335 ft | 0 kts | 108° |
| 2026-05-05 17:59 | 35.41036 | 51.15812 | 3336 ft | 5 kts | 109° |
| 2026-05-05 17:59 | 35.41007 | 51.15911 | 3336 ft | 16 kts | 109° |
| 2026-05-05 17:59 | 35.40969 | 51.16047 | 3336 ft | 16 kts | 110° |
| 2026-05-05 17:59 | 35.40929 | 51.16183 | 3336 ft | 17 kts | 109° |
| 2026-05-05 18:00 | 35.40890 | 51.16325 | 3336 ft | 17 kts | 108° |
| 2026-05-05 18:00 | 35.40905 | 51.16404 | 3336 ft | 10 kts | 33° |
| 2026-05-05 18:00 | 35.41006 | 51.16452 | 3336 ft | 17 kts | 19° |
| 2026-05-05 18:00 | 35.41121 | 51.16501 | 3335 ft | 17 kts | 19° |
| 2026-05-05 18:01 | 35.41229 | 51.16546 | 3335 ft | 16 kts | 18° |
| 2026-05-05 18:01 | 35.41320 | 51.16555 | 3335 ft | 10 kts | 307° |
| 2026-05-05 18:01 | 35.41358 | 51.16447 | 3335 ft | 41 kts | 289° |
| 2026-05-05 18:01 | 35.41540 | 51.15796 | 3335 ft | 117 kts | 289° |
| 2026-05-05 18:02 | 35.41876 | 51.14583 | 3329 ft | 179 kts | 289° |
| 2026-05-05 18:02 | 35.42327 | 51.12968 | 3480 ft | 213 kts | 288° |
| 2026-05-05 18:02 | 35.42804 | 51.11222 | 4000 ft | 220 kts | 290° |
| 2026-05-05 18:02 | 35.43684 | 51.09806 | 4826 ft | 214 kts | 328° |
| 2026-05-05 18:03 | 35.44961 | 51.09022 | 5771 ft | 202 kts | 336° |
| 2026-05-05 18:03 | 35.46240 | 51.08407 | 6546 ft | 200 kts | 338° |
| 2026-05-05 18:03 | 35.47549 | 51.07834 | 7007 ft | 203 kts | 338° |
| 2026-05-05 18:03 | 35.51508 | 51.03090 | 7882 ft | 240 kts | 302° |
| 2026-05-05 18:04 | 35.52541 | 51.01375 | 8124 ft | 256 kts | 304° |
| 2026-05-05 18:04 | 35.53657 | 50.99588 | 8350 ft | 275 kts | 304° |
| 2026-05-05 18:04 | 35.54879 | 50.97677 | 8723 ft | 290 kts | 304° |
| 2026-05-05 18:04 | 35.56148 | 50.95726 | 9341 ft | 294 kts | 303° |
| 2026-05-05 18:05 | 35.57422 | 50.93768 | 10030 ft | 295 kts | 303° |
| 2026-05-05 18:05 | 35.58712 | 50.91783 | 10571 ft | 303 kts | 303° |
| 2026-05-05 18:05 | 35.60045 | 50.89722 | 10876 ft | 320 kts | 302° |
| 2026-05-05 18:05 | 35.61470 | 50.87519 | 11186 ft | 338 kts | 302° |
| 2026-05-05 18:06 | 35.62971 | 50.85201 | 11496 ft | 356 kts | 303° |
| 2026-05-05 18:06 | 35.64012 | 50.83594 | 11694 ft | 368 kts | 303° |
| 2026-05-05 18:06 | 35.66211 | 50.80215 | 12351 ft | 383 kts | 302° |
| 2026-05-05 18:06 | 35.67864 | 50.77682 | 13063 ft | 386 kts | 302° |
| 2026-05-05 18:07 | 35.69540 | 50.75106 | 13841 ft | 388 kts | 302° |
| 2026-05-05 18:07 | 35.71233 | 50.72498 | 14559 ft | 392 kts | 302° |
| 2026-05-05 18:07 | 35.72930 | 50.69883 | 15256 ft | 395 kts | 302° |
| 2026-05-05 18:07 | 35.74641 | 50.67239 | 15955 ft | 397 kts | 302° |
| 2026-05-05 18:08 | 35.76362 | 50.64578 | 16672 ft | 400 kts | 301° |
| 2026-05-05 18:08 | 35.78097 | 50.61897 | 17301 ft | 403 kts | 302° |
| 2026-05-05 18:08 | 35.79844 | 50.59189 | 17937 ft | 407 kts | 302° |
| 2026-05-05 18:08 | 35.81609 | 50.56448 | 18570 ft | 410 kts | 302° |
| 2026-05-05 18:09 | 35.83380 | 50.53706 | 19185 ft | 414 kts | 301° |
| 2026-05-05 18:09 | 35.85166 | 50.50939 | 19777 ft | 418 kts | 301° |
| 2026-05-05 18:09 | 35.86972 | 50.48133 | 20334 ft | 422 kts | 301° |
| 2026-05-05 18:09 | 35.88798 | 50.45288 | 20874 ft | 426 kts | 302° |
| 2026-05-05 18:10 | 35.90646 | 50.42412 | 21452 ft | 429 kts | 302° |
| 2026-05-05 18:10 | 35.92502 | 50.39525 | 21990 ft | 434 kts | 301° |
| 2026-05-05 18:10 | 35.94387 | 50.36588 | 22465 ft | 438 kts | 301° |
| 2026-05-05 18:10 | 35.96288 | 50.33620 | 23004 ft | 442 kts | 301° |
| 2026-05-05 18:11 | 35.98183 | 50.30660 | 23541 ft | 445 kts | 301° |
| 2026-05-05 18:11 | 36.00115 | 50.27640 | 24059 ft | 449 kts | 301° |
| 2026-05-05 18:11 | 36.02044 | 50.24626 | 24544 ft | 453 kts | 301° |
| 2026-05-05 18:11 | 36.04005 | 50.21558 | 25046 ft | 456 kts | 301° |
| 2026-05-05 18:12 | 36.10856 | 50.10805 | 26617 ft | 467 kts | 301° |
| 2026-05-05 18:12 | 36.14611 | 50.04897 | 27542 ft | 469 kts | 301° |
| 2026-05-05 18:12 | 36.16559 | 50.01723 | 28005 ft | 468 kts | 298° |
| 2026-05-05 18:12 | 36.18372 | 49.98389 | 28634 ft | 462 kts | 295° |
| 2026-05-05 18:13 | 36.19997 | 49.94990 | 29324 ft | 455 kts | 291° |
| 2026-05-05 18:13 | 36.21435 | 49.91549 | 29928 ft | 449 kts | 288° |
| 2026-05-05 18:13 | 36.22753 | 49.88057 | 30430 ft | 447 kts | 287° |
| 2026-05-05 18:13 | 36.24041 | 49.84585 | 31012 ft | 444 kts | 287° |
| 2026-05-05 18:14 | 36.25316 | 49.81137 | 31594 ft | 440 kts | 287° |
| 2026-05-05 18:14 | 36.26570 | 49.77736 | 32150 ft | 437 kts | 287° |
| 2026-05-05 18:14 | 36.27830 | 49.74324 | 32728 ft | 433 kts | 286° |
| 2026-05-05 18:14 | 36.29066 | 49.70977 | 33275 ft | 429 kts | 286° |
| 2026-05-05 18:15 | 36.30298 | 49.67635 | 33778 ft | 425 kts | 286° |
| 2026-05-05 18:15 | 36.31507 | 49.64350 | 34306 ft | 422 kts | 286° |
| 2026-05-05 18:15 | 36.32713 | 49.61067 | 34755 ft | 420 kts | 286° |
| 2026-05-05 18:15 | 36.33925 | 49.57757 | 35024 ft | 422 kts | 286° |
| 2026-05-05 18:16 | 36.35135 | 49.54454 | 35322 ft | 421 kts | 285° |
| 2026-05-05 18:16 | 36.36326 | 49.51284 | 36929 ft | 390 kts | 286° |
| 2026-05-05 18:16 | 36.37429 | 49.48358 | 37753 ft | 375 kts | 285° |
| 2026-05-05 18:16 | 36.38494 | 49.45422 | 38037 ft | 373 kts | 284° |
| 2026-05-05 18:17 | 36.39543 | 49.42500 | 38022 ft | 377 kts | 285° |
| 2026-05-05 18:17 | 36.41720 | 49.36471 | 38069 ft | 385 kts | 285° |
| 2026-05-05 18:18 | 36.43936 | 49.30357 | 38058 ft | 395 kts | 285° |
| 2026-05-05 18:18 | 36.46215 | 49.24077 | 38065 ft | 405 kts | 285° |
| 2026-05-05 18:19 | 36.75431 | 48.42605 | 38092 ft | 417 kts | 287° |
| 2026-05-05 18:19 | 36.78252 | 48.36147 | 38085 ft | 434 kts | 292° |
| 2026-05-05 18:20 | 36.81676 | 48.29831 | 38092 ft | 443 kts | 297° |
| 2026-05-05 18:20 | 36.85541 | 48.23821 | 38060 ft | 444 kts | 299° |
| 2026-05-05 18:21 | 36.89453 | 48.17872 | 38060 ft | 444 kts | 298° |
| 2026-05-05 18:21 | 37.67980 | 46.96027 | 37959 ft | 444 kts | 298° |
| 2026-05-05 18:21 | 37.69914 | 46.92963 | 37989 ft | 448 kts | 299° |
| 2026-05-05 18:21 | 38.09977 | 46.29080 | 37848 ft | 452 kts | 299° |
| 2026-05-05 18:22 | 38.11901 | 46.25898 | 37877 ft | 454 kts | 297° |
| 2026-05-05 18:22 | 38.15400 | 46.19202 | 37897 ft | 456 kts | 292° |
| 2026-05-05 18:23 | 38.18349 | 46.12152 | 37901 ft | 453 kts | 288° |
| 2026-05-05 18:23 | 38.47407 | 45.36153 | 37916 ft | 456 kts | 289° |
| 2026-05-05 18:24 | 38.89656 | 44.23622 | 37977 ft | 457 kts | 285° |
| 2026-05-05 18:24 | 38.91724 | 44.15963 | 37978 ft | 452 kts | 280° |
| 2026-05-05 18:25 | 38.92842 | 44.10473 | 38004 ft | 450 kts | 278° |
| 2026-05-05 18:25 | 39.27987 | 42.18044 | 37858 ft | 450 kts | 277° |
| 2026-05-05 18:25 | 39.70061 | 39.57770 | 37798 ft | 451 kts | 278° |
| 2026-05-05 18:26 | 39.70599 | 39.51574 | 37909 ft | 456 kts | 272° |
| 2026-05-05 18:26 | 39.79176 | 36.89717 | 37985 ft | 466 kts | 278° |
| 2026-05-05 18:27 | 39.80302 | 36.81329 | 38018 ft | 471 kts | 279° |
| 2026-05-05 18:27 | 39.81457 | 36.72993 | 38008 ft | 472 kts | 279° |
| 2026-05-05 18:28 | 40.24128 | 33.12533 | 38173 ft | 463 kts | 283° |
| 2026-05-05 18:28 | 40.24891 | 33.08461 | 38028 ft | 462 kts | 288° |
| 2026-05-05 18:28 | 40.25824 | 33.04480 | 38025 ft | 462 kts | 289° |
| 2026-05-05 18:29 | 41.09999 | 29.27559 | 38548 ft | 460 kts | 287° |
| 2026-05-05 18:29 | 41.10897 | 29.23520 | 38276 ft | 456 kts | 290° |
| 2026-05-05 18:29 | 41.11939 | 29.19571 | 38117 ft | 454 kts | 293° |
| 2026-05-05 18:30 | 41.14522 | 29.12021 | 38080 ft | 450 kts | 304° |
| 2026-05-05 18:30 | 42.02986 | 27.29180 | 38433 ft | 450 kts | 305° |
| 2026-05-05 18:30 | 42.03814 | 27.27405 | 38371 ft | 450 kts | 304° |
| 2026-05-05 18:31 | 42.05405 | 27.23844 | 38175 ft | 449 kts | 302° |
| 2026-05-05 18:31 | 42.06895 | 27.20117 | 38094 ft | 451 kts | 299° |
| 2026-05-05 18:31 | 42.09488 | 27.12444 | 38066 ft | 451 kts | 296° |
| 2026-05-05 18:32 | 42.11949 | 27.04726 | 38067 ft | 451 kts | 296° |
| 2026-05-05 18:32 | 42.14411 | 26.96968 | 38069 ft | 451 kts | 296° |
| 2026-05-05 18:33 | 42.16862 | 26.89227 | 38097 ft | 450 kts | 296° |
| 2026-05-05 18:33 | 42.19305 | 26.81490 | 38034 ft | 450 kts | 296° |
| 2026-05-05 18:34 | 42.21752 | 26.73719 | 38073 ft | 451 kts | 296° |
| 2026-05-05 18:34 | 42.24183 | 26.65972 | 38080 ft | 451 kts | 296° |
| 2026-05-05 18:35 | 43.37318 | 22.77212 | 38485 ft | 448 kts | 292° |
| 2026-05-05 18:35 | 43.38341 | 22.73225 | 38182 ft | 441 kts | 291° |
| 2026-05-05 18:35 | 43.39310 | 22.69225 | 38086 ft | 440 kts | 290° |
| 2026-05-05 18:36 | 43.41207 | 22.61289 | 38046 ft | 439 kts | 290° |
| 2026-05-05 18:36 | 43.43116 | 22.53325 | 38048 ft | 439 kts | 290° |
| 2026-05-05 18:37 | 43.45025 | 22.45362 | 38037 ft | 439 kts | 290° |
| 2026-05-05 18:37 | 43.46373 | 22.39722 | 38054 ft | 438 kts | 290° |
| 2026-05-05 18:38 | 45.21115 | 13.34733 | 38003 ft | 431 kts | 281° |
| 2026-05-05 18:38 | 45.22327 | 13.26510 | 37956 ft | 428 kts | 280° |
| 2026-05-05 18:39 | 45.23541 | 13.18243 | 37950 ft | 431 kts | 280° |
| 2026-05-05 18:39 | 45.24756 | 13.09943 | 37946 ft | 430 kts | 280° |
| 2026-05-05 18:40 | 45.26108 | 13.01755 | 37946 ft | 431 kts | 283° |
| 2026-05-05 18:40 | 45.27994 | 12.93718 | 37949 ft | 433 kts | 289° |
| 2026-05-05 18:41 | 45.30264 | 12.85799 | 37946 ft | 433 kts | 290° |
| 2026-05-05 18:41 | 45.60235 | 11.80164 | 37948 ft | 433 kts | 287° |
| 2026-05-05 18:42 | 45.61200 | 11.76147 | 37660 ft | 431 kts | 284° |
| 2026-05-05 18:42 | 45.62023 | 11.72057 | 37335 ft | 427 kts | 281° |
| 2026-05-05 18:42 | 45.62688 | 11.67976 | 37026 ft | 421 kts | 279° |
| 2026-05-05 18:42 | 45.63205 | 11.63889 | 36711 ft | 418 kts | 276° |
| 2026-05-05 18:43 | 45.63575 | 11.59798 | 36424 ft | 418 kts | 273° |
| 2026-05-05 18:43 | 45.63800 | 11.55677 | 36163 ft | 416 kts | 270° |
| 2026-05-05 18:43 | 45.63890 | 11.51580 | 35916 ft | 413 kts | 269° |
| 2026-05-05 18:43 | 45.63948 | 11.47521 | 35681 ft | 410 kts | 268° |
| 2026-05-05 18:44 | 45.64002 | 11.43456 | 35336 ft | 413 kts | 269° |
| 2026-05-05 18:44 | 45.64053 | 11.39353 | 34765 ft | 414 kts | 268° |
| 2026-05-05 18:44 | 45.64101 | 11.35272 | 34170 ft | 415 kts | 269° |
| 2026-05-05 18:44 | 45.64149 | 11.31181 | 33574 ft | 414 kts | 268° |
| 2026-05-05 18:45 | 45.64195 | 11.27070 | 32997 ft | 414 kts | 268° |
| 2026-05-05 18:45 | 45.64239 | 11.22970 | 32398 ft | 414 kts | 267° |
| 2026-05-05 18:45 | 45.64281 | 11.18854 | 31741 ft | 416 kts | 268° |
| 2026-05-05 18:45 | 45.64320 | 11.14768 | 31028 ft | 419 kts | 268° |
| 2026-05-05 18:46 | 45.64362 | 11.10624 | 30321 ft | 422 kts | 268° |
| 2026-05-05 18:46 | 45.64400 | 11.06448 | 29593 ft | 424 kts | 268° |
| 2026-05-05 18:46 | 45.64439 | 11.02214 | 28918 ft | 424 kts | 267° |
| 2026-05-05 18:46 | 45.64476 | 10.98035 | 28246 ft | 425 kts | 267° |
| 2026-05-05 18:47 | 45.64508 | 10.93860 | 27570 ft | 425 kts | 268° |
| 2026-05-05 18:47 | 45.64542 | 10.89657 | 27043 ft | 424 kts | 268° |
| 2026-05-05 18:47 | 45.64576 | 10.85468 | 26540 ft | 421 kts | 268° |
| 2026-05-05 18:47 | 45.64607 | 10.81315 | 26095 ft | 417 kts | 267° |
| 2026-05-05 18:48 | 45.64640 | 10.77232 | 25615 ft | 413 kts | 268° |
| 2026-05-05 18:48 | 45.64670 | 10.73178 | 25171 ft | 409 kts | 268° |
| 2026-05-05 18:48 | 45.64700 | 10.69121 | 24720 ft | 405 kts | 268° |
| 2026-05-05 18:48 | 45.64726 | 10.65149 | 24300 ft | 401 kts | 267° |
| 2026-05-05 18:49 | 45.64751 | 10.61200 | 23821 ft | 398 kts | 268° |
| 2026-05-05 18:49 | 45.64771 | 10.57286 | 23424 ft | 394 kts | 267° |
| 2026-05-05 18:49 | 45.64787 | 10.53363 | 22993 ft | 390 kts | 267° |
| 2026-05-05 18:49 | 45.64803 | 10.49529 | 22589 ft | 388 kts | 267° |
| 2026-05-05 18:50 | 45.64819 | 10.45677 | 22098 ft | 386 kts | 267° |
| 2026-05-05 18:50 | 45.64835 | 10.41910 | 21655 ft | 384 kts | 267° |
| 2026-05-05 18:50 | 45.64849 | 10.38115 | 21249 ft | 381 kts | 267° |
| 2026-05-05 18:50 | 45.64860 | 10.34327 | 20792 ft | 379 kts | 266° |
| 2026-05-05 18:51 | 45.64870 | 10.30560 | 20374 ft | 376 kts | 266° |
| 2026-05-05 18:51 | 45.64881 | 10.26845 | 19966 ft | 374 kts | 266° |
| 2026-05-05 18:51 | 45.64889 | 10.23164 | 19555 ft | 373 kts | 266° |
| 2026-05-05 18:51 | 45.64894 | 10.19478 | 19108 ft | 371 kts | 266° |
| 2026-05-05 18:52 | 45.64901 | 10.15814 | 18618 ft | 370 kts | 266° |
| 2026-05-05 18:52 | 45.64906 | 10.12168 | 18257 ft | 368 kts | 266° |
| 2026-05-05 18:52 | 45.64917 | 10.08551 | 17829 ft | 367 kts | 267° |
| 2026-05-05 18:52 | 45.64932 | 10.04880 | 17395 ft | 365 kts | 267° |
| 2026-05-05 18:53 | 45.64949 | 10.01298 | 16979 ft | 364 kts | 267° |
| 2026-05-05 18:53 | 45.64961 | 9.97687 | 16548 ft | 363 kts | 267° |
| 2026-05-05 18:53 | 45.64975 | 9.94114 | 16118 ft | 361 kts | 268° |
| 2026-05-05 18:53 | 45.64986 | 9.90515 | 15685 ft | 360 kts | 268° |
| 2026-05-05 18:54 | 45.64995 | 9.86980 | 15263 ft | 359 kts | 268° |
| 2026-05-05 18:54 | 45.65004 | 9.83421 | 14839 ft | 357 kts | 268° |
| 2026-05-05 18:54 | 45.65011 | 9.79891 | 14411 ft | 356 kts | 268° |
| 2026-05-05 18:54 | 45.65019 | 9.76394 | 13997 ft | 354 kts | 269° |
| 2026-05-05 18:55 | 45.65081 | 9.72902 | 13569 ft | 354 kts | 270° |
| 2026-05-05 18:55 | 45.65168 | 9.69407 | 13138 ft | 352 kts | 270° |
| 2026-05-05 18:55 | 45.65252 | 9.65898 | 12726 ft | 350 kts | 270° |
| 2026-05-05 18:55 | 45.65328 | 9.62477 | 12304 ft | 349 kts | 269° |
| 2026-05-05 18:56 | 45.65350 | 9.59031 | 11872 ft | 347 kts | 268° |
| 2026-05-05 18:56 | 45.65347 | 9.55623 | 11699 ft | 335 kts | 268° |
| 2026-05-05 18:56 | 45.65344 | 9.52349 | 11584 ft | 323 kts | 268° |
| 2026-05-05 18:56 | 45.65340 | 9.49210 | 11469 ft | 311 kts | 268° |
| 2026-05-05 18:57 | 45.65338 | 9.46225 | 11351 ft | 300 kts | 268° |
| 2026-05-05 18:57 | 45.65335 | 9.43294 | 11236 ft | 289 kts | 268° |
| 2026-05-05 18:57 | 45.65332 | 9.40464 | 11127 ft | 279 kts | 268° |
| 2026-05-05 18:57 | 45.65330 | 9.37753 | 11028 ft | 270 kts | 267° |
| 2026-05-05 18:58 | 45.65326 | 9.35107 | 10945 ft | 265 kts | 267° |
| 2026-05-05 18:58 | 45.65332 | 9.32454 | 10695 ft | 266 kts | 267° |
| 2026-05-05 18:58 | 45.65345 | 9.29837 | 10377 ft | 266 kts | 267° |
| 2026-05-05 18:58 | 45.65361 | 9.27197 | 10064 ft | 266 kts | 268° |
| 2026-05-05 18:59 | 45.65376 | 9.24552 | 9762 ft | 266 kts | 267° |
| 2026-05-05 18:59 | 45.65390 | 9.21898 | 9464 ft | 266 kts | 268° |
| 2026-05-05 18:59 | 45.65401 | 9.19274 | 9164 ft | 266 kts | 268° |
| 2026-05-05 18:59 | 45.65412 | 9.16657 | 8867 ft | 266 kts | 268° |
| 2026-05-05 19:00 | 45.65322 | 9.14003 | 8542 ft | 263 kts | 252° |
| 2026-05-05 19:00 | 45.64418 | 9.11843 | 8330 ft | 263 kts | 223° |
| 2026-05-05 19:00 | 45.63077 | 9.10004 | 8151 ft | 269 kts | 222° |
| 2026-05-05 19:00 | 45.61745 | 9.08150 | 7915 ft | 268 kts | 223° |
| 2026-05-05 19:01 | 45.60437 | 9.06259 | 7644 ft | 267 kts | 224° |
| 2026-05-05 19:01 | 45.59148 | 9.04342 | 7348 ft | 266 kts | 225° |
| 2026-05-05 19:01 | 45.57896 | 9.02449 | 7057 ft | 265 kts | 225° |
| 2026-05-05 19:01 | 45.56641 | 9.00535 | 6756 ft | 263 kts | 225° |
| 2026-05-05 19:02 | 45.55394 | 8.98627 | 6473 ft | 262 kts | 225° |
| 2026-05-05 19:02 | 45.54167 | 8.96745 | 6185 ft | 261 kts | 225° |
| 2026-05-05 19:02 | 45.52922 | 8.94839 | 5892 ft | 261 kts | 225° |
| 2026-05-05 19:02 | 45.51699 | 8.92963 | 5743 ft | 255 kts | 226° |
| 2026-05-05 19:03 | 45.50383 | 8.91378 | 5642 ft | 244 kts | 201° |
| 2026-05-05 19:03 | 45.48767 | 8.91073 | 5433 ft | 238 kts | 170° |
| 2026-05-05 19:03 | 45.47144 | 8.91568 | 5164 ft | 237 kts | 167° |
| 2026-05-05 19:03 | 45.45545 | 8.92064 | 4894 ft | 236 kts | 168° |
| 2026-05-05 19:04 | 45.43935 | 8.92535 | 4628 ft | 236 kts | 168° |
| 2026-05-05 19:04 | 45.42337 | 8.92985 | 4369 ft | 235 kts | 169° |
| 2026-05-05 19:04 | 45.40732 | 8.93427 | 4104 ft | 233 kts | 169° |
| 2026-05-05 19:04 | 45.39162 | 8.93853 | 3971 ft | 226 kts | 168° |
| 2026-05-05 19:05 | 45.37646 | 8.94263 | 3967 ft | 218 kts | 168° |
| 2026-05-05 19:05 | 45.36179 | 8.94663 | 3969 ft | 215 kts | 168° |
| 2026-05-05 19:05 | 45.34692 | 8.95068 | 3967 ft | 214 kts | 168° |
| 2026-05-05 19:05 | 45.33248 | 8.95460 | 3968 ft | 213 kts | 169° |
| 2026-05-05 19:06 | 45.31775 | 8.95860 | 3965 ft | 213 kts | 169° |
| 2026-05-05 19:06 | 45.30334 | 8.96249 | 3956 ft | 213 kts | 169° |
| 2026-05-05 19:06 | 45.28875 | 8.96643 | 3958 ft | 213 kts | 169° |
| 2026-05-05 19:06 | 45.27404 | 8.97042 | 3956 ft | 214 kts | 168° |
| 2026-05-05 19:07 | 45.25948 | 8.97438 | 3964 ft | 216 kts | 169° |
| 2026-05-05 19:07 | 45.24474 | 8.97839 | 3992 ft | 213 kts | 169° |
| 2026-05-05 19:07 | 45.23032 | 8.98232 | 3967 ft | 210 kts | 169° |
| 2026-05-05 19:07 | 45.21643 | 8.98609 | 3944 ft | 195 kts | 169° |
| 2026-05-05 19:08 | 45.20356 | 8.98954 | 3935 ft | 184 kts | 169° |
| 2026-05-05 19:08 | 45.19101 | 8.99289 | 3950 ft | 183 kts | 169° |
| 2026-05-05 19:08 | 45.17843 | 8.99625 | 3958 ft | 183 kts | 169° |
| 2026-05-05 19:08 | 45.16589 | 8.99961 | 3958 ft | 182 kts | 169° |
| 2026-05-05 19:09 | 45.15344 | 9.00294 | 3958 ft | 182 kts | 169° |
| 2026-05-05 19:09 | 45.14101 | 9.00628 | 3955 ft | 182 kts | 169° |
| 2026-05-05 19:09 | 45.12868 | 9.00958 | 3957 ft | 182 kts | 169° |
| 2026-05-05 19:09 | 45.11616 | 9.01295 | 3955 ft | 182 kts | 169° |
| 2026-05-05 19:10 | 45.10378 | 9.01627 | 3962 ft | 182 kts | 169° |
| 2026-05-05 19:10 | 45.09140 | 9.01959 | 3958 ft | 182 kts | 169° |
| 2026-05-05 19:10 | 45.07888 | 9.02221 | 3949 ft | 181 kts | 182° |
| 2026-05-05 19:10 | 45.06695 | 9.01698 | 3949 ft | 183 kts | 212° |
| 2026-05-05 19:11 | 45.05828 | 9.00372 | 3948 ft | 185 kts | 242° |
| 2026-05-05 19:11 | 45.05462 | 8.98631 | 3957 ft | 187 kts | 257° |
| 2026-05-05 19:11 | 45.05230 | 8.96843 | 3944 ft | 186 kts | 258° |
| 2026-05-05 19:11 | 45.05006 | 8.95039 | 3942 ft | 187 kts | 258° |
| 2026-05-05 19:12 | 45.04772 | 8.93216 | 3942 ft | 187 kts | 257° |
| 2026-05-05 19:12 | 45.04591 | 8.91393 | 3944 ft | 190 kts | 271° |
| 2026-05-05 19:12 | 45.05008 | 8.89652 | 3947 ft | 192 kts | 304° |
| 2026-05-05 19:12 | 45.06023 | 8.88439 | 3946 ft | 194 kts | 335° |
| 2026-05-05 19:13 | 45.07334 | 8.87949 | 3972 ft | 194 kts | 349° |
| 2026-05-05 19:13 | 45.08719 | 8.87608 | 3985 ft | 212 kts | 350° |
| 2026-05-05 19:13 | 45.10207 | 8.87249 | 3972 ft | 217 kts | 350° |
| 2026-05-05 19:13 | 45.11697 | 8.86874 | 3962 ft | 218 kts | 349° |
| 2026-05-05 19:14 | 45.13183 | 8.86484 | 3956 ft | 217 kts | 349° |
| 2026-05-05 19:14 | 45.14666 | 8.86085 | 3942 ft | 217 kts | 349° |
| 2026-05-05 19:14 | 45.16138 | 8.85686 | 3948 ft | 217 kts | 349° |
| 2026-05-05 19:14 | 45.17630 | 8.85282 | 3952 ft | 216 kts | 349° |
| 2026-05-05 19:15 | 45.19098 | 8.84884 | 3950 ft | 216 kts | 349° |
| 2026-05-05 19:15 | 45.20583 | 8.84480 | 3949 ft | 217 kts | 349° |
| 2026-05-05 19:15 | 45.22069 | 8.84078 | 3957 ft | 216 kts | 349° |
| 2026-05-05 19:15 | 45.23548 | 8.83677 | 3967 ft | 217 kts | 349° |
| 2026-05-05 19:16 | 45.25035 | 8.83271 | 3961 ft | 217 kts | 349° |
| 2026-05-05 19:16 | 45.26510 | 8.82868 | 3954 ft | 217 kts | 349° |
| 2026-05-05 19:16 | 45.27990 | 8.82465 | 3960 ft | 217 kts | 349° |
| 2026-05-05 19:16 | 45.29484 | 8.82056 | 3959 ft | 216 kts | 350° |
| 2026-05-05 19:17 | 45.30962 | 8.81653 | 3967 ft | 216 kts | 350° |
| 2026-05-05 19:17 | 45.32426 | 8.81256 | 3968 ft | 215 kts | 350° |
| 2026-05-05 19:17 | 45.33892 | 8.80859 | 3963 ft | 216 kts | 349° |
| 2026-05-05 19:17 | 45.35384 | 8.80455 | 3965 ft | 212 kts | 349° |
| 2026-05-05 19:18 | 45.36769 | 8.80076 | 3934 ft | 195 kts | 351° |
| 2026-05-05 19:18 | 45.38059 | 8.79801 | 3941 ft | 185 kts | 353° |
| 2026-05-05 19:18 | 45.39335 | 8.79550 | 3955 ft | 184 kts | 353° |
| 2026-05-05 19:18 | 45.40604 | 8.79301 | 3964 ft | 184 kts | 353° |
| 2026-05-05 19:19 | 45.41874 | 8.79053 | 3964 ft | 184 kts | 353° |
| 2026-05-05 19:19 | 45.43134 | 8.78784 | 3974 ft | 184 kts | 351° |
| 2026-05-05 19:19 | 45.44406 | 8.78493 | 3968 ft | 185 kts | 351° |
| 2026-05-05 19:19 | 45.45672 | 8.78173 | 3855 ft | 185 kts | 351° |
| 2026-05-05 19:20 | 45.46928 | 8.77833 | 3616 ft | 181 kts | 351° |
| 2026-05-05 19:20 | 45.48155 | 8.77491 | 3376 ft | 179 kts | 351° |
| 2026-05-05 19:20 | 45.49363 | 8.77152 | 3140 ft | 178 kts | 350° |
| 2026-05-05 19:20 | 45.50566 | 8.76814 | 2903 ft | 176 kts | 351° |
| 2026-05-05 19:21 | 45.51769 | 8.76478 | 2671 ft | 176 kts | 350° |
| 2026-05-05 19:21 | 45.52976 | 8.76141 | 2437 ft | 174 kts | 350° |
| 2026-05-05 19:21 | 45.54133 | 8.75819 | 2198 ft | 165 kts | 350° |
| 2026-05-05 19:21 | 45.55215 | 8.75518 | 1976 ft | 155 kts | 350° |
| 2026-05-05 19:22 | 45.56263 | 8.75228 | 1785 ft | 153 kts | 350° |
| 2026-05-05 19:22 | 45.57317 | 8.74936 | 1589 ft | 152 kts | 350° |
| 2026-05-05 19:22 | 45.58355 | 8.74648 | 1386 ft | 151 kts | 350° |
| 2026-05-05 19:22 | 45.59382 | 8.74364 | 1182 ft | 150 kts | 350° |
| 2026-05-05 19:23 | 45.60399 | 8.74084 | 978 ft | 149 kts | 350° |
| 2026-05-05 19:23 | 45.61415 | 8.73799 | 787 ft | 148 kts | 350° |
| 2026-05-05 19:23 | 45.62385 | 8.73532 | 723 ft | 129 kts | 349° |
| 2026-05-05 19:23 | 45.62995 | 8.73367 | 733 ft | 45 kts | 348° |
| 2026-05-05 19:24 | 45.63211 | 8.73174 | 741 ft | 36 kts | 308° |
| 2026-05-05 19:24 | 45.63329 | 8.72929 | 744 ft | 11 kts | 304° |
| 2026-05-05 19:24 | 45.63356 | 8.72872 | 746 ft | 6 kts | 304° |
| 2026-05-05 19:24 | 45.63366 | 8.72851 | 747 ft | 12 kts | 304° |
| 2026-05-05 19:25 | 45.63410 | 8.72703 | 749 ft | 17 kts | 270° |
| 2026-05-05 19:25 | 45.63387 | 8.72485 | 751 ft | 26 kts | 259° |
| 2026-05-05 19:25 | 45.63356 | 8.72255 | 754 ft | 15 kts | 259° |
| 2026-05-05 19:25 | 45.63341 | 8.72134 | 757 ft | 3 kts | 259° |
| 2026-05-05 19:26 | 45.63340 | 8.72131 | 757 ft | 0 kts | 259° |
| 2026-05-05 19:26 | 45.63339 | 8.72120 | 757 ft | 2 kts | 259° |
| 2026-05-05 19:26 | 45.63332 | 8.72071 | 758 ft | 7 kts | 259° |
| 2026-05-05 19:26 | 45.63325 | 8.72016 | 759 ft | 5 kts | 259° |
| 2026-05-05 19:27 | 45.63303 | 8.71981 | 759 ft | 7 kts | 201° |
| 2026-05-05 19:27 | 45.63229 | 8.71985 | 757 ft | 12 kts | 172° |
| 2026-05-05 19:27 | 45.63128 | 8.72011 | 755 ft | 16 kts | 168° |
| 2026-05-05 19:27 | 45.63002 | 8.72047 | 752 ft | 19 kts | 169° |
| 2026-05-05 19:28 | 45.62869 | 8.72084 | 749 ft | 20 kts | 169° |
| 2026-05-05 19:28 | 45.62729 | 8.72123 | 745 ft | 20 kts | 169° |
| 2026-05-05 19:28 | 45.62588 | 8.72161 | 743 ft | 19 kts | 169° |
| 2026-05-05 19:28 | 45.62464 | 8.72195 | 743 ft | 16 kts | 169° |
| 2026-05-05 19:29 | 45.62387 | 8.72216 | 742 ft | 0 kts | 169° |
| 2026-05-05 19:29 | 45.62384 | 8.72217 | 742 ft | 1 kts | 169° |
| 2026-05-05 19:29 | 45.62370 | 8.72220 | 742 ft | 2 kts | 169° |
| 2026-05-05 19:29 | 45.62350 | 8.72226 | 742 ft | 3 kts | 169° |
| 2026-05-05 19:30 | 45.62326 | 8.72232 | 742 ft | 0 kts | 169° |
| 2026-05-05 19:30 | 45.62323 | 8.72233 | 742 ft | 0 kts | 169° |
| 2026-05-05 19:30 | 45.62314 | 8.72236 | 741 ft | 2 kts | 169° |
| 2026-05-05 19:30 | 45.62312 | 8.72236 | 741 ft | 0 kts | 169° |
| 2026-05-05 19:32 | 45.62294 | 8.72241 | 741 ft | 5 kts | 169° |
| 2026-05-05 19:32 | 45.62227 | 8.72251 | 739 ft | 5 kts | 200° |
| 2026-05-05 19:33 | 45.62203 | 8.72183 | 740 ft | 12 kts | 257° |
| 2026-05-05 19:33 | 45.62184 | 8.72057 | 742 ft | 13 kts | 259° |
| 2026-05-05 19:33 | 45.62146 | 8.71978 | 742 ft | 10 kts | 189° |
| 2026-05-05 19:33 | 45.62092 | 8.71964 | 740 ft | 5 kts | 226° |
| 2026-05-05 19:34 | 45.62080 | 8.71907 | 740 ft | 6 kts | 258° |
| 2026-05-05 19:34 | 45.62073 | 8.71861 | 741 ft | 0 kts | 259° |